createdAt,value
2018-05-29T00:00:09.990Z,22.90
2018-05-29T00:02:37.450Z,22.90
2018-05-29T00:05:04.931Z,22.90
2018-05-29T00:07:32.390Z,22.90
2018-05-29T00:09:59.874Z,22.80
2018-05-29T00:12:27.346Z,22.80
2018-05-29T00:14:54.822Z,22.70
2018-05-29T00:17:22.286Z,22.70
2018-05-29T00:19:49.765Z,22.70
2018-05-29T00:22:17.224Z,22.70
2018-05-29T00:24:44.698Z,22.70
2018-05-29T00:27:12.927Z,22.70
2018-05-29T00:29:40.413Z,22.70
2018-05-29T00:32:07.878Z,22.70
2018-05-29T00:34:35.358Z,22.70
2018-05-29T00:37:02.824Z,22.70
2018-05-29T00:39:30.307Z,22.70
2018-05-29T00:41:57.782Z,22.60
2018-05-29T00:44:25.249Z,22.60
2018-05-29T00:46:52.757Z,22.60
2018-05-29T00:49:20.217Z,22.60
2018-05-29T00:51:47.691Z,22.60
2018-05-29T00:54:15.164Z,22.60
2018-05-29T00:56:42.630Z,22.50
2018-05-29T00:59:10.090Z,22.50
2018-05-29T01:01:37.572Z,22.50
2018-05-29T01:04:05.048Z,22.40
2018-05-29T01:06:32.518Z,22.40
2018-05-29T01:08:59.995Z,22.40
2018-05-29T01:11:27.467Z,22.30
2018-05-29T01:13:54.933Z,22.30
2018-05-29T01:16:22.412Z,22.30
2018-05-29T01:18:49.878Z,22.30
2018-05-29T01:21:17.378Z,22.20
2018-05-29T01:23:44.857Z,22.20
2018-05-29T01:26:12.323Z,22.10
2018-05-29T01:28:39.795Z,22.10
2018-05-29T01:31:07.259Z,22.10
2018-05-29T01:33:35.498Z,22.00
2018-05-29T01:36:02.970Z,22.00
2018-05-29T01:38:30.579Z,22.00
2018-05-29T01:40:58.042Z,22.00
2018-05-29T01:43:25.519Z,21.90
2018-05-29T01:45:52.990Z,21.90
2018-05-29T01:48:20.485Z,21.90
2018-05-29T01:50:48.734Z,21.80
2018-05-29T01:53:16.212Z,21.80
2018-05-29T01:55:44.445Z,21.70
2018-05-29T01:58:11.918Z,21.70
2018-05-29T02:00:39.377Z,21.70
2018-05-29T02:03:06.842Z,21.70
2018-05-29T02:05:34.302Z,21.60
2018-05-29T02:08:01.785Z,21.60
2018-05-29T02:10:29.254Z,21.50
2018-05-29T02:12:56.714Z,21.40
2018-05-29T02:15:24.197Z,21.40
2018-05-29T02:17:51.658Z,21.40
2018-05-29T02:20:19.133Z,21.40
2018-05-29T02:22:46.593Z,21.50
2018-05-29T02:25:14.061Z,21.50
2018-05-29T02:27:42.291Z,21.40
2018-05-29T02:30:09.762Z,21.50
2018-05-29T02:32:37.219Z,21.40
2018-05-29T02:35:04.754Z,21.40
2018-05-29T02:37:32.210Z,21.40
2018-05-29T02:39:59.698Z,21.40
2018-05-29T02:42:27.149Z,21.40
2018-05-29T02:44:54.629Z,21.30
2018-05-29T02:47:22.086Z,21.30
2018-05-29T02:49:49.562Z,21.30
2018-05-29T02:52:17.801Z,21.30
2018-05-29T02:54:45.257Z,21.30
2018-05-29T02:57:12.734Z,21.20
2018-05-29T02:59:40.190Z,21.20
2018-05-29T03:02:07.663Z,21.20
2018-05-29T03:04:35.118Z,21.10
2018-05-29T03:07:02.596Z,21.10
2018-05-29T03:09:30.058Z,21.10
2018-05-29T03:11:57.546Z,21.00
2018-05-29T03:14:25.030Z,21.00
2018-05-29T03:16:52.505Z,21.00
2018-05-29T03:19:20.733Z,21.00
2018-05-29T03:21:48.197Z,20.90
2018-05-29T03:24:15.663Z,20.90
2018-05-29T03:26:43.137Z,20.90
2018-05-29T03:29:10.601Z,20.90
2018-05-29T03:31:38.850Z,20.80
2018-05-29T03:34:06.314Z,20.80
2018-05-29T03:36:33.795Z,20.80
2018-05-29T03:39:01.250Z,20.80
2018-05-29T03:41:28.709Z,20.80
2018-05-29T03:43:56.185Z,20.70
2018-05-29T03:46:23.645Z,20.70
2018-05-29T03:48:51.112Z,20.70
2018-05-29T03:51:18.583Z,20.70
2018-05-29T03:53:46.045Z,20.70
2018-05-29T03:56:13.505Z,20.60
2018-05-29T03:58:40.981Z,20.70
2018-05-29T04:01:08.438Z,20.60
2018-05-29T04:03:35.903Z,20.60
2018-05-29T04:06:03.368Z,20.60
2018-05-29T04:08:30.846Z,20.60
2018-05-29T04:10:58.302Z,20.60
2018-05-29T04:13:25.773Z,20.60
2018-05-29T04:15:53.255Z,20.60
2018-05-29T04:18:20.713Z,20.60
2018-05-29T04:20:48.168Z,20.60
2018-05-29T04:23:15.645Z,20.60
2018-05-29T04:25:43.102Z,20.60
2018-05-29T04:28:10.574Z,20.60
2018-05-29T04:30:38.036Z,20.50
2018-05-29T04:33:05.521Z,20.50
2018-05-29T04:35:33.871Z,20.50
2018-05-29T04:38:01.333Z,20.60
2018-05-29T04:40:28.814Z,20.50
2018-05-29T04:42:56.273Z,20.60
2018-05-29T04:45:23.749Z,20.60
2018-05-29T04:47:51.205Z,20.60
2018-05-29T04:50:18.681Z,20.60
2018-05-29T04:52:46.147Z,20.60
2018-05-29T04:55:13.622Z,20.60
2018-05-29T04:57:41.102Z,20.70
2018-05-29T05:00:08.587Z,20.70
2018-05-29T05:02:36.053Z,20.70
2018-05-29T05:05:03.537Z,20.70
2018-05-29T05:07:30.994Z,20.80
2018-05-29T05:09:58.469Z,20.80
2018-05-29T05:12:25.930Z,20.80
2018-05-29T05:14:53.402Z,20.70
2018-05-29T05:17:20.857Z,20.80
2018-05-29T05:19:48.320Z,20.80
2018-05-29T05:22:15.829Z,20.80
2018-05-29T05:24:43.318Z,20.90
2018-05-29T05:27:10.905Z,20.90
2018-05-29T05:29:38.442Z,21.00
2018-05-29T05:32:05.974Z,21.00
2018-05-29T05:34:33.510Z,21.10
2018-05-29T05:37:01.065Z,21.10
2018-05-29T05:39:28.573Z,21.10
2018-05-29T05:41:56.097Z,21.10
2018-05-29T05:44:23.617Z,21.20
2018-05-29T05:46:51.120Z,21.20
2018-05-29T05:49:18.657Z,21.30
2018-05-29T05:51:46.224Z,21.30
2018-05-29T05:54:13.701Z,21.40
2018-05-29T05:56:41.231Z,21.40
2018-05-29T05:59:08.818Z,21.40
2018-05-29T06:01:36.443Z,21.50
2018-05-29T06:04:03.926Z,21.60
2018-05-29T06:06:31.511Z,21.60
2018-05-29T06:08:59.001Z,21.70
2018-05-29T06:11:26.797Z,21.70
2018-05-29T06:13:54.280Z,21.80
2018-05-29T06:16:21.781Z,21.90
2018-05-29T06:18:49.292Z,21.90
2018-05-29T06:21:16.761Z,21.90
2018-05-29T06:23:44.328Z,22.00
2018-05-29T06:26:11.847Z,22.00
2018-05-29T06:28:39.425Z,22.00
2018-05-29T06:31:06.929Z,22.10
2018-05-29T06:33:35.524Z,22.20
2018-05-29T06:36:03.007Z,22.20
2018-05-29T06:38:30.530Z,22.20
2018-05-29T06:40:58.036Z,22.30
2018-05-29T06:43:25.578Z,22.30
2018-05-29T06:45:53.150Z,22.30
2018-05-29T06:48:20.698Z,22.40
2018-05-29T06:50:48.220Z,22.50
2018-05-29T06:53:15.791Z,22.50
2018-05-29T06:55:43.556Z,22.60
2018-05-29T06:58:11.026Z,22.60
2018-05-29T07:00:38.520Z,22.70
2018-05-29T07:03:06.042Z,22.70
2018-05-29T07:05:33.544Z,22.80
2018-05-29T07:08:01.072Z,22.80
2018-05-29T07:10:28.573Z,22.90
2018-05-29T07:12:56.148Z,23.00
2018-05-29T07:15:23.678Z,23.00
2018-05-29T07:17:51.206Z,23.10
2018-05-29T07:20:18.784Z,23.10
2018-05-29T07:22:46.310Z,23.10
2018-05-29T07:25:13.793Z,23.20
2018-05-29T07:27:41.419Z,23.20
2018-05-29T07:30:08.889Z,23.20
2018-05-29T07:32:36.350Z,23.20
2018-05-29T07:35:03.833Z,23.30
2018-05-29T07:37:31.299Z,23.30
2018-05-29T07:39:58.773Z,23.30
2018-05-29T07:42:26.253Z,23.40
2018-05-29T07:44:53.729Z,23.40
2018-05-29T07:47:21.213Z,23.50
2018-05-29T07:49:49.109Z,23.50
2018-05-29T07:52:17.346Z,23.60
2018-05-29T07:54:44.814Z,23.50
2018-05-29T07:57:12.295Z,23.60
2018-05-29T07:59:39.752Z,23.70
2018-05-29T08:02:07.225Z,23.70
2018-05-29T08:04:34.692Z,23.70
2018-05-29T08:07:02.162Z,23.70
2018-05-29T08:09:29.618Z,23.70
2018-05-29T08:11:57.081Z,23.80
2018-05-29T08:14:24.542Z,23.80
2018-05-29T08:16:52.025Z,23.80
2018-05-29T08:19:19.498Z,23.80
2018-05-29T08:21:46.960Z,23.90
2018-05-29T08:24:14.417Z,23.80
2018-05-29T08:26:41.895Z,23.90
2018-05-29T08:29:10.150Z,23.90
2018-05-29T08:31:37.605Z,24.00
2018-05-29T08:34:05.073Z,24.00
2018-05-29T08:36:32.529Z,24.00
2018-05-29T08:39:00.006Z,24.10
2018-05-29T08:41:27.461Z,24.10
2018-05-29T08:43:54.937Z,24.20
2018-05-29T08:46:22.453Z,24.20
2018-05-29T08:48:49.869Z,24.20
2018-05-29T08:51:17.349Z,24.30
2018-05-29T08:53:44.821Z,24.30
2018-05-29T08:56:12.287Z,24.40
2018-05-29T08:58:40.525Z,24.40
2018-05-29T09:01:07.997Z,24.40
2018-05-29T09:03:35.476Z,24.50
2018-05-29T09:06:02.939Z,24.50
2018-05-29T09:08:30.424Z,24.50
2018-05-29T09:10:57.881Z,24.50
2018-05-29T09:13:25.354Z,24.60
2018-05-29T09:15:52.826Z,24.60
2018-05-29T09:18:20.294Z,24.70
2018-05-29T09:20:47.763Z,24.70
2018-05-29T09:23:15.230Z,24.70
2018-05-29T09:25:42.698Z,24.80
2018-05-29T09:28:10.956Z,24.80
2018-05-29T09:30:38.440Z,24.80
2018-05-29T09:33:05.936Z,24.90
2018-05-29T09:35:33.444Z,24.90
2018-05-29T09:38:00.986Z,24.90
2018-05-29T09:40:28.534Z,24.90
2018-05-29T09:42:56.066Z,24.90
2018-05-29T09:45:23.562Z,24.90
2018-05-29T09:47:51.071Z,24.90
2018-05-29T09:50:18.532Z,25.00
2018-05-29T09:52:46.017Z,25.00
2018-05-29T09:55:13.465Z,25.10
2018-05-29T09:57:40.930Z,25.10
2018-05-29T10:00:08.414Z,25.10
2018-05-29T10:02:35.889Z,25.20
2018-05-29T10:05:03.382Z,25.30
2018-05-29T10:07:30.852Z,25.30
2018-05-29T10:09:58.772Z,25.30
2018-05-29T10:12:25.800Z,25.40
2018-05-29T10:14:53.256Z,25.40
2018-05-29T10:17:20.729Z,25.50
2018-05-29T10:19:48.189Z,25.50
2018-05-29T10:22:15.669Z,25.50
2018-05-29T10:24:43.143Z,25.50
2018-05-29T10:27:10.614Z,25.60
2018-05-29T10:29:38.122Z,25.60
2018-05-29T10:32:06.417Z,25.70
2018-05-29T10:34:33.972Z,25.60
2018-05-29T10:37:01.528Z,25.70
2018-05-29T10:39:29.029Z,25.70
2018-05-29T10:41:56.585Z,25.70
2018-05-29T10:44:24.063Z,25.80
2018-05-29T10:46:52.357Z,25.80
2018-05-29T10:49:19.836Z,25.80
2018-05-29T10:51:47.410Z,25.80
2018-05-29T10:54:15.646Z,25.90
2018-05-29T10:56:43.159Z,25.90
2018-05-29T10:59:10.724Z,25.90
2018-05-29T11:01:38.144Z,25.90
2018-05-29T11:04:05.619Z,26.00
2018-05-29T11:06:33.078Z,26.10
2018-05-29T11:09:00.581Z,26.20
2018-05-29T11:11:28.041Z,26.20
2018-05-29T11:13:55.526Z,26.20
2018-05-29T11:16:22.993Z,26.30
2018-05-29T11:18:50.473Z,26.40
2018-05-29T11:21:17.933Z,26.40
2018-05-29T11:23:45.397Z,26.50
2018-05-29T11:26:13.018Z,26.50
2018-05-29T11:28:40.485Z,26.50
2018-05-29T11:31:07.973Z,26.60
2018-05-29T11:33:35.430Z,26.70
2018-05-29T11:36:02.885Z,26.70
2018-05-29T11:38:30.346Z,26.80
2018-05-29T11:40:58.646Z,26.80
2018-05-29T11:43:26.137Z,26.80
2018-05-29T11:45:53.613Z,26.80
2018-05-29T11:48:21.074Z,26.80
2018-05-29T11:50:48.550Z,26.70
2018-05-29T11:53:16.013Z,26.70
2018-05-29T11:55:43.493Z,26.70
2018-05-29T11:58:10.957Z,26.70
2018-05-29T12:00:39.206Z,26.70
2018-05-29T12:03:06.658Z,26.70
2018-05-29T12:05:34.130Z,26.70
2018-05-29T12:08:02.378Z,26.70
2018-05-29T12:10:29.852Z,26.70
2018-05-29T12:12:57.309Z,26.80
2018-05-29T12:15:24.923Z,26.80
2018-05-29T12:17:52.384Z,26.80
2018-05-29T12:20:19.873Z,26.80
2018-05-29T12:22:47.346Z,26.80
2018-05-29T12:25:14.801Z,26.80
2018-05-29T12:27:42.311Z,26.80
2018-05-29T12:30:09.969Z,26.80
2018-05-29T12:32:37.437Z,26.80
2018-05-29T12:35:04.906Z,26.80
2018-05-29T12:37:32.373Z,26.80
2018-05-29T12:39:59.837Z,26.80
2018-05-29T12:42:27.297Z,26.80
2018-05-29T12:44:55.018Z,26.80
2018-05-29T12:47:22.484Z,26.80
2018-05-29T12:49:50.180Z,26.80
2018-05-29T12:52:17.654Z,26.80
2018-05-29T12:54:45.105Z,26.90
2018-05-29T12:57:12.757Z,26.90
2018-05-29T12:59:40.219Z,26.90
2018-05-29T13:02:07.723Z,27.00
2018-05-29T13:04:35.966Z,27.00
2018-05-29T13:07:03.545Z,27.10
2018-05-29T13:09:30.998Z,27.10
2018-05-29T13:11:58.536Z,27.20
2018-05-29T13:14:26.029Z,27.20
2018-05-29T13:16:53.498Z,27.30
2018-05-29T13:19:21.009Z,27.40
2018-05-29T13:21:48.503Z,27.40
2018-05-29T13:24:16.059Z,27.40
2018-05-29T13:26:43.529Z,27.40
2018-05-29T13:29:11.062Z,27.40
2018-05-29T13:31:39.473Z,27.40
2018-05-29T13:34:06.958Z,27.40
2018-05-29T13:36:34.417Z,27.40
2018-05-29T13:39:01.906Z,27.30
2018-05-29T13:41:29.444Z,27.30
2018-05-29T13:43:56.936Z,27.20
2018-05-29T13:46:24.441Z,27.20
2018-05-29T13:48:51.917Z,27.20
2018-05-29T13:51:19.441Z,27.20
2018-05-29T13:53:46.952Z,27.20
2018-05-29T13:56:14.475Z,27.20
2018-05-29T13:58:41.949Z,27.20
2018-05-29T14:01:09.418Z,27.20
2018-05-29T14:03:36.913Z,27.20
2018-05-29T14:06:04.446Z,27.20
2018-05-29T14:08:32.743Z,27.20
2018-05-29T14:11:00.296Z,27.20
2018-05-29T14:13:27.795Z,27.20
2018-05-29T14:15:55.322Z,27.20
2018-05-29T14:18:22.833Z,27.10
2018-05-29T14:20:50.390Z,27.20
2018-05-29T14:23:17.870Z,27.20
2018-05-29T14:25:46.180Z,27.30
2018-05-29T14:28:13.690Z,27.30
2018-05-29T14:30:41.939Z,27.40
2018-05-29T14:33:09.565Z,27.40
2018-05-29T14:35:37.252Z,27.50
2018-05-29T14:38:04.722Z,27.60
2018-05-29T14:40:32.276Z,27.60
2018-05-29T14:42:59.785Z,27.70
2018-05-29T14:45:27.319Z,27.90
2018-05-29T14:47:54.788Z,28.10
2018-05-29T14:50:22.278Z,28.20
2018-05-29T14:52:50.629Z,28.10
2018-05-29T14:55:18.139Z,28.10
2018-05-29T14:57:45.637Z,28.00
2018-05-29T15:00:13.870Z,28.00
2018-05-29T15:02:41.340Z,28.00
2018-05-29T15:05:08.802Z,27.90
2018-05-29T15:07:36.290Z,27.90
2018-05-29T15:10:03.774Z,27.80
2018-05-29T15:12:31.241Z,27.70
2018-05-29T15:14:58.693Z,27.70
2018-05-29T15:17:26.235Z,27.70
2018-05-29T15:19:54.505Z,27.70
2018-05-29T15:22:22.034Z,27.70
2018-05-29T15:24:49.561Z,27.70
2018-05-29T15:27:17.020Z,27.70
2018-05-29T15:29:44.486Z,27.70
2018-05-29T15:32:11.960Z,27.60
2018-05-29T15:34:39.425Z,27.60
2018-05-29T15:37:06.881Z,27.50
2018-05-29T15:39:34.450Z,27.50
2018-05-29T15:42:01.922Z,27.40
2018-05-29T15:44:29.406Z,27.40
2018-05-29T15:46:56.925Z,27.30
2018-05-29T15:49:25.162Z,27.20
2018-05-29T15:51:52.647Z,27.20
2018-05-29T15:54:20.121Z,27.10
2018-05-29T15:56:47.584Z,27.00
2018-05-29T15:59:15.077Z,26.90
2018-05-29T16:01:42.574Z,26.90
2018-05-29T16:04:10.082Z,26.80
2018-05-29T16:06:37.586Z,26.80
2018-05-29T16:09:05.823Z,26.80
2018-05-29T16:11:33.284Z,26.80
2018-05-29T16:14:00.884Z,26.70
2018-05-29T16:16:28.362Z,26.70
2018-05-29T16:18:55.847Z,26.70
2018-05-29T16:21:23.369Z,26.70
2018-05-29T16:23:50.838Z,26.60
2018-05-29T16:26:18.333Z,26.50
2018-05-29T16:28:45.814Z,26.50
2018-05-29T16:31:13.265Z,26.40
2018-05-29T16:33:40.735Z,26.40
2018-05-29T16:36:08.193Z,26.30
2018-05-29T16:38:35.654Z,26.30
2018-05-29T16:41:03.122Z,26.20
2018-05-29T16:43:31.349Z,26.10
2018-05-29T16:45:58.813Z,26.10
2018-05-29T16:48:26.274Z,26.10
2018-05-29T16:50:53.752Z,26.00
2018-05-29T16:53:21.201Z,25.90
2018-05-29T16:55:48.673Z,25.90
2018-05-29T16:58:16.151Z,25.80
2018-05-29T17:00:43.609Z,25.70
2018-05-29T17:03:11.107Z,25.60
2018-05-29T17:05:38.572Z,25.50
2018-05-29T17:08:06.046Z,25.50
2018-05-29T17:10:33.509Z,25.50
2018-05-29T17:13:00.965Z,25.40
2018-05-29T17:15:28.453Z,25.40
2018-05-29T17:17:56.665Z,25.30
2018-05-29T17:20:24.137Z,25.30
2018-05-29T17:22:51.597Z,25.30
2018-05-29T17:25:19.085Z,25.30
2018-05-29T17:27:46.537Z,25.30
2018-05-29T17:30:14.010Z,25.30
2018-05-29T17:32:41.470Z,25.20
2018-05-29T17:35:08.922Z,25.10
2018-05-29T17:37:36.381Z,24.80
2018-05-29T17:40:03.834Z,24.60
2018-05-29T17:42:31.298Z,24.40
2018-05-29T17:44:58.798Z,24.30
2018-05-29T17:47:26.225Z,24.20
2018-05-29T17:49:53.678Z,24.10
2018-05-29T17:52:21.156Z,24.10
2018-05-29T17:54:48.603Z,24.00
2018-05-29T17:57:16.073Z,23.90
2018-05-29T17:59:44.429Z,23.90
2018-05-29T18:02:11.899Z,23.90
2018-05-29T18:04:39.358Z,23.80
2018-05-29T18:07:06.813Z,23.60
2018-05-29T18:09:34.311Z,23.50
2018-05-29T18:12:01.733Z,23.40
2018-05-29T18:14:29.202Z,23.40
2018-05-29T18:16:56.665Z,23.40
2018-05-29T18:19:24.126Z,23.30
2018-05-29T18:21:51.581Z,23.30
2018-05-29T18:24:19.034Z,23.30
2018-05-29T18:26:46.496Z,23.30
2018-05-29T18:29:13.970Z,23.30
2018-05-29T18:31:41.425Z,23.30
2018-05-29T18:34:08.890Z,23.30
2018-05-29T18:36:36.337Z,23.30
2018-05-29T18:39:03.805Z,23.20
2018-05-29T18:41:31.266Z,23.20
2018-05-29T18:43:58.733Z,23.20
2018-05-29T18:46:26.948Z,23.20
2018-05-29T18:48:54.414Z,23.20
2018-05-29T18:51:21.870Z,23.20
2018-05-29T18:53:49.343Z,23.10
2018-05-29T18:56:16.812Z,23.10
2018-05-29T18:58:44.275Z,23.10
2018-05-29T19:01:11.725Z,23.00
2018-05-29T19:03:39.193Z,23.00
2018-05-29T19:06:06.646Z,23.00
2018-05-29T19:08:34.117Z,23.00
2018-05-29T19:11:01.570Z,23.00
2018-05-29T19:13:29.041Z,23.00
2018-05-29T19:15:56.497Z,23.00
2018-05-29T19:18:23.954Z,23.00
2018-05-29T19:20:51.425Z,22.90
2018-05-29T19:23:18.884Z,22.90
2018-05-29T19:25:46.354Z,22.90
2018-05-29T19:28:13.804Z,22.90
2018-05-29T19:30:41.271Z,22.90
2018-05-29T19:33:08.725Z,22.90
2018-05-29T19:35:36.193Z,22.90
2018-05-29T19:38:03.650Z,22.90
2018-05-29T19:40:31.105Z,22.80
2018-05-29T19:42:58.552Z,22.80
2018-05-29T19:45:26.017Z,22.80
2018-05-29T19:47:53.473Z,22.80
2018-05-29T19:50:20.935Z,22.80
2018-05-29T19:52:48.385Z,22.80
2018-05-29T19:55:15.849Z,22.70
2018-05-29T19:57:43.305Z,22.70
2018-05-29T20:00:10.773Z,22.70
2018-05-29T20:02:38.234Z,22.70
2018-05-29T20:05:05.708Z,22.70
2018-05-29T20:07:33.165Z,22.70
2018-05-29T20:10:00.621Z,22.70
2018-05-29T20:12:28.092Z,22.70
2018-05-29T20:14:55.562Z,22.60
2018-05-29T20:17:30.726Z,22.50
2018-05-29T20:19:58.229Z,22.50
2018-05-29T20:22:25.653Z,22.40
2018-05-29T20:24:53.115Z,22.40
2018-05-29T20:27:20.585Z,22.40
2018-05-29T20:29:48.041Z,22.30
2018-05-29T20:32:15.518Z,22.30
2018-05-29T20:34:42.969Z,22.30
2018-05-29T20:37:10.435Z,22.30
2018-05-29T20:39:37.889Z,22.30
2018-05-29T20:42:05.353Z,22.30
2018-05-29T20:44:32.813Z,22.30
2018-05-29T20:47:00.273Z,22.30
2018-05-29T20:49:27.733Z,22.20
2018-05-29T20:51:55.201Z,22.20
2018-05-29T20:54:22.665Z,22.20
2018-05-29T20:56:50.142Z,22.20
2018-05-29T20:59:17.590Z,22.20
2018-05-29T21:01:45.066Z,22.20
2018-05-29T21:04:12.521Z,22.20
2018-05-29T21:06:39.977Z,22.20
2018-05-29T21:09:07.446Z,22.20
2018-05-29T21:11:34.897Z,22.20
2018-05-29T21:14:02.370Z,22.20
2018-05-29T21:16:29.821Z,22.20
2018-05-29T21:18:57.281Z,22.20
2018-05-29T21:21:24.748Z,22.20
2018-05-29T21:23:52.204Z,22.20
2018-05-29T21:26:19.662Z,22.20
2018-05-29T21:28:47.129Z,22.10
2018-05-29T21:31:14.593Z,22.10
2018-05-29T21:33:42.054Z,22.10
2018-05-29T21:36:09.510Z,22.10
2018-05-29T21:38:36.985Z,22.10
2018-05-29T21:41:04.444Z,22.00
2018-05-29T21:43:31.915Z,22.00
2018-05-29T21:45:59.365Z,22.00
2018-05-29T21:48:26.841Z,22.00
2018-05-29T21:50:54.302Z,21.90
2018-05-29T21:53:21.765Z,21.90
2018-05-29T21:55:49.226Z,21.90
2018-05-29T21:58:16.705Z,21.90
2018-05-29T22:00:44.158Z,21.90
2018-05-29T22:03:11.617Z,21.80
2018-05-29T22:05:39.085Z,21.80
2018-05-29T22:08:06.545Z,21.80
2018-05-29T22:10:34.013Z,21.80
2018-05-29T22:13:01.468Z,21.80
2018-05-29T22:15:28.929Z,21.80
2018-05-29T22:17:57.154Z,21.80
2018-05-29T22:20:24.622Z,21.70
2018-05-29T22:22:52.077Z,21.80
2018-05-29T22:25:19.537Z,21.80
2018-05-29T22:27:46.985Z,21.80
2018-05-29T22:30:14.467Z,21.70
2018-05-29T22:32:41.917Z,21.70
2018-05-29T22:35:09.386Z,21.70
2018-05-29T22:37:36.845Z,21.70
2018-05-29T22:40:04.297Z,21.70
2018-05-29T22:42:31.775Z,21.70
2018-05-29T22:44:59.224Z,21.70
2018-05-29T22:47:26.689Z,21.60
2018-05-29T22:49:54.910Z,21.60
2018-05-29T22:52:22.379Z,21.60
2018-05-29T22:54:49.844Z,21.60
2018-05-29T22:57:17.300Z,21.50
2018-05-29T22:59:44.761Z,21.50
2018-05-29T23:02:12.239Z,21.50
2018-05-29T23:04:39.739Z,21.50
2018-05-29T23:07:07.161Z,21.40
2018-05-29T23:09:34.612Z,21.40
2018-05-29T23:12:02.073Z,21.40
2018-05-29T23:14:29.530Z,21.40
2018-05-29T23:16:56.989Z,21.30
2018-05-29T23:19:25.244Z,21.30
2018-05-29T23:21:52.688Z,21.30
2018-05-29T23:24:20.154Z,21.20
2018-05-29T23:26:47.621Z,21.20
2018-05-29T23:29:15.081Z,21.10
2018-05-29T23:31:42.546Z,21.10
2018-05-29T23:34:10.013Z,21.10
2018-05-29T23:36:38.234Z,20.90
2018-05-29T23:39:05.702Z,20.90
2018-05-29T23:41:33.165Z,20.80
2018-05-29T23:44:00.634Z,20.80
2018-05-29T23:46:28.097Z,20.70
2018-05-29T23:48:55.559Z,20.70
2018-05-29T23:51:23.013Z,20.70
2018-05-29T23:53:50.490Z,20.60
2018-05-29T23:56:17.945Z,20.60
2018-05-29T23:58:45.409Z,20.60
